createdAt,value
2018-06-18T00:00:46.763Z,59.12
2018-06-18T00:03:17.228Z,59.63
2018-06-18T00:05:47.454Z,59.57
2018-06-18T00:08:17.718Z,59.04
2018-06-18T00:10:48.224Z,59.77
2018-06-18T00:13:18.575Z,59.53
2018-06-18T00:15:48.809Z,59.65
2018-06-18T00:18:19.128Z,59.86
2018-06-18T00:20:49.495Z,59.56
2018-06-18T00:23:19.671Z,59.30
2018-06-18T00:25:49.947Z,59.49
2018-06-18T00:28:20.827Z,59.31
2018-06-18T00:30:51.141Z,59.42
2018-06-18T00:33:21.568Z,59.53
2018-06-18T00:35:51.835Z,59.14
2018-06-18T00:38:21.980Z,58.71
2018-06-18T00:40:52.271Z,59.41
2018-06-18T00:43:22.541Z,59.81
2018-06-18T00:45:52.947Z,59.66
2018-06-18T00:48:23.403Z,58.77
2018-06-18T00:50:53.733Z,59.08
2018-06-18T00:53:24.082Z,58.67
2018-06-18T00:56:07.206Z,59.60
2018-06-18T00:58:37.492Z,59.62
2018-06-18T01:01:07.937Z,59.60
2018-06-18T01:03:38.986Z,59.25
2018-06-18T01:06:09.390Z,58.99
2018-06-18T01:08:39.594Z,58.88
2018-06-18T01:11:09.662Z,59.40
2018-06-18T01:13:40.042Z,59.52
2018-06-18T01:16:10.155Z,58.77
2018-06-18T01:18:40.345Z,59.46
2018-06-18T01:21:10.175Z,59.09
2018-06-18T01:23:58.071Z,59.29
2018-06-18T01:26:28.421Z,59.95
2018-06-18T01:28:58.679Z,59.76
2018-06-18T01:31:29.273Z,59.80
2018-06-18T01:34:01.167Z,60.09
2018-06-18T01:36:31.511Z,60.03
2018-06-18T01:39:01.952Z,59.51
2018-06-18T01:41:32.264Z,60.12
2018-06-18T01:44:02.864Z,60.70
2018-06-18T01:46:33.491Z,60.29
2018-06-18T01:49:03.757Z,60.88
2018-06-18T01:51:34.159Z,61.24
2018-06-18T01:54:04.645Z,60.38
2018-06-18T01:56:34.864Z,60.98
2018-06-18T01:59:04.995Z,61.26
2018-06-18T02:01:35.316Z,61.37
2018-06-18T02:04:05.584Z,61.15
2018-06-18T02:06:36.200Z,61.59
2018-06-18T02:09:09.920Z,61.22
2018-06-18T02:11:40.351Z,61.14
2018-06-18T02:14:11.476Z,61.04
2018-06-18T02:16:41.614Z,61.37
2018-06-18T02:19:12.186Z,61.53
2018-06-18T02:21:42.722Z,60.92
2018-06-18T02:24:12.944Z,61.59
2018-06-18T02:26:43.121Z,61.28
2018-06-18T02:29:18.083Z,61.23
2018-06-18T02:31:53.258Z,61.04
2018-06-18T02:34:28.719Z,61.74
2018-06-18T02:37:03.995Z,61.68
2018-06-18T02:39:38.305Z,62.12
2018-06-18T02:42:08.608Z,62.14
2018-06-18T02:44:38.775Z,62.75
2018-06-18T02:47:08.920Z,62.35
2018-06-18T02:49:39.052Z,62.81
2018-06-18T02:52:09.350Z,63.01
2018-06-18T02:54:39.496Z,62.57
2018-06-18T02:57:10.839Z,63.03
2018-06-18T02:59:41.070Z,62.97
2018-06-18T03:02:11.576Z,63.19
2018-06-18T03:04:41.570Z,62.24
2018-06-18T03:07:12.531Z,62.47
2018-06-18T03:09:42.741Z,63.45
2018-06-18T03:12:13.105Z,63.48
2018-06-18T03:14:43.950Z,63.14
2018-06-18T03:17:14.276Z,63.19
2018-06-18T03:19:50.115Z,63.24
2018-06-18T03:22:25.402Z,63.84
2018-06-18T03:25:00.686Z,63.69
2018-06-18T03:27:35.926Z,64.39
2018-06-18T03:30:06.686Z,63.73
2018-06-18T03:32:36.770Z,64.20
2018-06-18T03:35:07.016Z,63.75
2018-06-18T03:37:37.203Z,64.04
2018-06-18T03:40:07.727Z,64.25
2018-06-18T03:42:37.858Z,64.41
2018-06-18T03:45:20.819Z,64.50
2018-06-18T03:47:50.925Z,65.03
2018-06-18T03:50:21.182Z,64.94
2018-06-18T03:52:51.293Z,64.64
2018-06-18T03:55:25.515Z,65.11
2018-06-18T03:57:55.454Z,65.12
2018-06-18T04:00:34.480Z,65.74
2018-06-18T04:03:10.256Z,65.05
2018-06-18T04:05:45.494Z,65.69
2018-06-18T04:08:15.592Z,65.58
2018-06-18T04:10:50.722Z,65.82
2018-06-18T04:13:20.978Z,65.93
2018-06-18T04:15:51.130Z,65.73
2018-06-18T04:18:21.362Z,65.70
2018-06-18T04:20:51.485Z,65.81
2018-06-18T04:23:21.666Z,65.79
2018-06-18T04:25:51.790Z,65.36
2018-06-18T04:28:22.385Z,65.46
2018-06-18T04:30:52.484Z,65.25
2018-06-18T04:33:26.434Z,65.23
2018-06-18T04:35:56.614Z,64.48
2018-06-18T04:38:26.726Z,65.32
2018-06-18T04:40:56.889Z,65.61
2018-06-18T04:43:32.509Z,65.45
2018-06-18T04:46:07.583Z,65.79
2018-06-18T04:48:42.762Z,66.66
2018-06-18T04:51:12.929Z,66.88
2018-06-18T04:53:43.507Z,66.67
2018-06-18T04:56:13.793Z,67.22
2018-06-18T04:58:44.227Z,67.48
2018-06-18T05:01:19.053Z,67.66
2018-06-18T05:03:49.366Z,67.99
2018-06-18T05:06:19.829Z,68.09
2018-06-18T05:09:03.495Z,68.21
2018-06-18T05:11:33.565Z,68.35
2018-06-18T05:14:03.831Z,68.29
2018-06-18T05:16:34.031Z,68.54
2018-06-18T05:19:04.146Z,68.68
2018-06-18T05:21:34.398Z,68.26
2018-06-18T05:24:05.003Z,67.87
2018-06-18T05:26:37.320Z,68.25
2018-06-18T05:29:07.713Z,67.87
2018-06-18T05:31:38.141Z,67.47
2018-06-18T05:34:08.637Z,66.99
2018-06-18T05:36:39.736Z,67.24
2018-06-18T05:39:10.084Z,67.03
2018-06-18T05:41:40.234Z,66.67
2018-06-18T05:44:10.573Z,66.66
2018-06-18T05:46:40.701Z,66.31
2018-06-18T05:49:10.924Z,66.00
2018-06-18T05:51:40.996Z,65.44
2018-06-18T05:54:11.224Z,65.48
2018-06-18T05:56:41.451Z,64.78
2018-06-18T05:59:11.653Z,64.35
2018-06-18T06:01:41.814Z,64.36
2018-06-18T06:04:12.246Z,63.30
2018-06-18T06:06:42.571Z,63.29
2018-06-18T06:09:13.561Z,62.75
2018-06-18T06:11:44.159Z,62.80
2018-06-18T06:14:14.683Z,63.09
2018-06-18T06:16:45.328Z,62.15
2018-06-18T06:19:15.673Z,62.13
2018-06-18T06:21:46.307Z,61.96
2018-06-18T06:24:16.318Z,62.79
2018-06-18T06:26:46.646Z,62.79
2018-06-18T06:29:16.933Z,62.33
2018-06-18T06:31:47.047Z,61.60
2018-06-18T06:34:17.494Z,61.13
2018-06-18T06:36:47.977Z,61.65
2018-06-18T06:39:18.156Z,60.93
2018-06-18T06:41:52.846Z,61.60
2018-06-18T06:44:23.158Z,60.99
2018-06-18T06:46:53.444Z,61.81
2018-06-18T06:49:23.787Z,60.97
2018-06-18T06:51:54.283Z,61.35
2018-06-18T06:54:24.521Z,60.45
2018-06-18T06:56:54.731Z,60.21
2018-06-18T06:59:24.908Z,60.03
2018-06-18T07:01:55.023Z,60.65
2018-06-18T07:04:25.283Z,59.62
2018-06-18T07:06:55.340Z,59.64
2018-06-18T07:09:25.752Z,58.98
2018-06-18T07:11:55.797Z,58.80
2018-06-18T07:14:26.479Z,59.19
2018-06-18T07:16:57.023Z,58.23
2018-06-18T07:19:27.314Z,57.96
2018-06-18T07:21:57.517Z,58.74
2018-06-18T07:24:27.814Z,58.40
2018-06-18T07:26:58.048Z,57.81
2018-06-18T07:29:28.286Z,57.14
2018-06-18T07:31:58.500Z,56.47
2018-06-18T07:34:28.889Z,56.40
2018-06-18T07:36:59.505Z,56.20
2018-06-18T07:39:29.722Z,56.04
2018-06-18T07:41:59.842Z,56.18
2018-06-18T07:44:29.924Z,55.39
2018-06-18T07:47:00.304Z,55.88
2018-06-18T07:49:30.530Z,56.58
2018-06-18T07:52:00.711Z,55.40
2018-06-18T07:54:30.827Z,55.91
2018-06-18T07:57:01.196Z,55.47
2018-06-18T07:59:31.478Z,55.34
2018-06-18T08:02:01.715Z,55.37
2018-06-18T08:04:32.074Z,54.64
2018-06-18T08:07:02.149Z,53.07
2018-06-18T08:09:32.561Z,52.09
2018-06-18T08:12:02.856Z,52.92
2018-06-18T08:14:32.939Z,51.92
2018-06-18T08:17:03.175Z,52.36
2018-06-18T08:19:33.258Z,51.22
2018-06-18T08:22:03.512Z,52.82
2018-06-18T08:24:33.740Z,52.14
2018-06-18T08:27:03.961Z,51.95
2018-06-18T08:29:34.488Z,52.50
2018-06-18T08:32:04.844Z,51.54
2018-06-18T08:34:35.125Z,50.53
2018-06-18T08:37:06.294Z,51.14
2018-06-18T08:39:37.326Z,50.28
2018-06-18T08:42:07.509Z,50.29
2018-06-18T08:44:38.048Z,50.63
2018-06-18T08:47:08.992Z,50.48
2018-06-18T08:49:44.370Z,50.38
2018-06-18T08:52:19.626Z,50.17
2018-06-18T08:55:08.410Z,49.24
2018-06-18T08:57:43.620Z,49.34
2018-06-18T09:00:18.978Z,49.20
2018-06-18T09:03:52.125Z,48.72
2018-06-18T09:06:22.073Z,49.05
2018-06-18T09:08:56.196Z,48.00
2018-06-18T09:11:26.626Z,48.49
2018-06-18T09:13:57.024Z,48.09
2018-06-18T09:16:27.683Z,47.80
2018-06-18T09:18:58.348Z,47.15
2018-06-18T09:21:29.138Z,47.42
2018-06-18T09:23:59.546Z,46.55
2018-06-18T09:26:29.695Z,45.16
2018-06-18T09:28:59.904Z,44.98
2018-06-18T09:31:30.025Z,43.53
2018-06-18T09:34:00.856Z,43.04
2018-06-18T09:36:31.373Z,42.56
2018-06-18T09:39:01.451Z,42.77
2018-06-18T09:41:31.451Z,40.77
2018-06-18T09:44:01.710Z,39.63
2018-06-18T09:46:32.261Z,38.99
2018-06-18T09:49:07.661Z,38.07
2018-06-18T09:51:43.023Z,37.61
2018-06-18T09:54:18.625Z,38.08
2018-06-18T09:56:53.941Z,37.27
2018-06-18T09:59:38.535Z,37.96
2018-06-18T10:02:10.135Z,37.87
2018-06-18T10:04:40.272Z,37.94
2018-06-18T10:07:10.434Z,36.48
2018-06-18T10:09:40.629Z,36.62
2018-06-18T10:12:11.304Z,36.15
2018-06-18T10:14:41.583Z,34.86
2018-06-18T10:17:11.876Z,35.01
2018-06-18T10:19:42.864Z,35.29
2018-06-18T10:22:13.005Z,34.18
2018-06-18T10:24:43.695Z,35.34
2018-06-18T10:27:13.950Z,34.38
2018-06-18T10:29:44.166Z,35.61
2018-06-18T10:32:19.404Z,35.31
2018-06-18T10:34:54.382Z,33.67
2018-06-18T10:37:29.867Z,34.26
2018-06-18T10:40:05.170Z,34.29
2018-06-18T10:42:40.767Z,34.01
2018-06-18T10:45:10.890Z,33.30
2018-06-18T10:47:40.959Z,33.81
2018-06-18T10:50:11.083Z,33.20
2018-06-18T10:52:41.304Z,32.24
2018-06-18T10:55:11.658Z,31.99
2018-06-18T10:57:42.747Z,30.93
2018-06-18T11:00:16.527Z,31.56
2018-06-18T11:02:46.763Z,31.69
2018-06-18T11:05:16.802Z,33.11
2018-06-18T11:07:47.226Z,33.27
2018-06-18T11:10:17.422Z,32.57
2018-06-18T11:12:48.902Z,32.67
2018-06-18T11:15:19.263Z,33.65
2018-06-18T11:17:57.492Z,32.65
2018-06-18T11:20:35.470Z,31.58
2018-06-18T11:23:13.246Z,31.72
2018-06-18T11:25:51.028Z,31.54
2018-06-18T11:28:30.575Z,31.64
2018-06-18T11:31:04.212Z,31.74
2018-06-18T11:33:37.256Z,31.95
2018-06-18T11:36:12.857Z,30.76
2018-06-18T11:38:46.423Z,31.43
2018-06-18T11:41:22.830Z,31.27
2018-06-18T11:43:57.894Z,30.28
2018-06-18T11:46:33.720Z,30.22
2018-06-18T11:49:13.910Z,29.56
2018-06-18T11:51:47.930Z,30.15
2018-06-18T11:54:20.942Z,30.73
2018-06-18T11:56:54.174Z,30.70
2018-06-18T11:59:31.726Z,30.89
2018-06-18T12:02:07.283Z,29.97
2018-06-18T12:04:44.637Z,29.01
2018-06-18T12:07:21.923Z,28.70
2018-06-18T12:09:55.487Z,29.43
2018-06-18T12:12:28.877Z,29.87
2018-06-18T12:15:02.239Z,29.38
2018-06-18T12:17:37.324Z,30.08
2018-06-18T12:20:11.084Z,29.51
2018-06-18T12:22:44.145Z,30.51
2018-06-18T12:25:17.534Z,29.44
2018-06-18T12:27:50.194Z,28.98
2018-06-18T12:30:22.728Z,28.93
2018-06-18T12:32:55.879Z,29.47
2018-06-18T12:35:28.786Z,28.96
2018-06-18T12:37:59.458Z,29.41
2018-06-18T12:40:29.754Z,29.05
2018-06-18T12:42:59.675Z,27.67
2018-06-18T12:45:35.782Z,27.65
2018-06-18T12:48:11.288Z,28.29
2018-06-18T12:50:46.566Z,28.58
2018-06-18T12:53:21.910Z,28.69
2018-06-18T12:55:58.270Z,28.52
2018-06-18T12:58:28.673Z,28.58
2018-06-18T13:00:59.424Z,27.74
2018-06-18T13:03:29.736Z,26.50
2018-06-18T13:06:00.150Z,26.82
2018-06-18T13:08:30.698Z,27.21
2018-06-18T13:11:00.791Z,27.45
2018-06-18T13:13:30.927Z,26.61
2018-06-18T13:16:01.194Z,27.12
2018-06-18T13:18:31.191Z,28.08
2018-06-18T13:21:01.601Z,26.89
2018-06-18T13:23:31.830Z,26.87
2018-06-18T13:26:02.148Z,27.29
2018-06-18T13:28:32.434Z,27.33
2018-06-18T13:31:02.537Z,27.01
2018-06-18T13:33:32.631Z,27.33
2018-06-18T13:36:02.831Z,27.76
2018-06-18T13:38:38.351Z,26.66
2018-06-18T13:41:13.876Z,27.09
2018-06-18T13:43:49.288Z,27.19
2018-06-18T13:46:24.499Z,27.00
2018-06-18T13:48:56.463Z,26.63
2018-06-18T13:51:27.523Z,26.22
2018-06-18T13:53:57.700Z,25.67
2018-06-18T13:56:27.966Z,26.20
2018-06-18T13:58:58.182Z,26.21
2018-06-18T14:01:28.336Z,25.69
2018-06-18T14:03:58.325Z,25.38
2018-06-18T14:06:28.418Z,25.68
2018-06-18T14:08:58.526Z,25.50
2018-06-18T14:11:28.567Z,24.95
2018-06-18T14:13:58.719Z,24.21
2018-06-18T14:16:29.070Z,23.87
2018-06-18T14:19:03.334Z,24.49
2018-06-18T14:21:33.681Z,24.37
2018-06-18T14:24:04.474Z,23.96
2018-06-18T14:26:35.293Z,23.41
2018-06-18T14:29:05.555Z,22.57
2018-06-18T14:31:40.790Z,23.41
2018-06-18T14:34:16.024Z,23.05
2018-06-18T14:36:51.319Z,23.07
2018-06-18T14:39:26.574Z,24.16
2018-06-18T14:41:56.836Z,24.37
2018-06-18T14:44:27.096Z,23.44
2018-06-18T14:46:57.559Z,24.06
2018-06-18T14:49:27.603Z,23.28
2018-06-18T14:51:57.965Z,21.68
2018-06-18T14:54:28.192Z,19.19
2018-06-18T14:57:00.330Z,18.49
2018-06-18T14:59:35.187Z,17.72
2018-06-18T15:02:05.530Z,16.14
2018-06-18T15:04:35.863Z,16.77
2018-06-18T15:07:05.933Z,18.51
2018-06-18T15:09:35.958Z,21.21
2018-06-18T15:12:06.279Z,22.79
2018-06-18T15:14:36.607Z,23.65
2018-06-18T15:17:06.926Z,24.22
2018-06-18T15:19:37.142Z,24.86
2018-06-18T15:22:07.539Z,22.22
2018-06-18T15:24:47.934Z,20.65
2018-06-18T15:27:18.204Z,19.89
2018-06-18T15:29:48.717Z,18.79
2018-06-18T15:32:18.850Z,19.22
2018-06-18T15:34:49.163Z,18.20
2018-06-18T15:37:19.388Z,18.41
2018-06-18T15:39:49.770Z,20.11
2018-06-18T15:42:20.130Z,19.80
2018-06-18T15:44:50.318Z,21.11
2018-06-18T15:47:20.342Z,20.25
2018-06-18T15:49:50.611Z,20.82
2018-06-18T15:52:21.127Z,21.92
2018-06-18T15:54:51.461Z,21.85
2018-06-18T15:57:21.417Z,21.88
2018-06-18T15:59:51.650Z,22.63
2018-06-18T16:02:21.964Z,22.83
2018-06-18T16:04:52.339Z,22.55
2018-06-18T16:07:23.080Z,23.00
2018-06-18T16:09:53.065Z,23.90
2018-06-18T16:12:23.202Z,24.41
2018-06-18T16:14:53.262Z,23.99
2018-06-18T16:17:23.517Z,24.87
2018-06-18T16:19:53.510Z,25.11
2018-06-18T16:22:23.672Z,25.37
2018-06-18T16:24:54.085Z,25.47
2018-06-18T16:27:24.210Z,26.16
2018-06-18T16:29:54.544Z,25.88
2018-06-18T16:32:25.378Z,26.20
2018-06-18T16:34:55.590Z,26.19
2018-06-18T16:37:25.859Z,26.43
2018-06-18T16:39:56.049Z,27.69
2018-06-18T16:42:26.328Z,28.04
2018-06-18T16:44:56.482Z,28.16
2018-06-18T16:47:26.910Z,29.08
2018-06-18T16:49:57.130Z,28.71
2018-06-18T16:52:27.665Z,30.03
2018-06-18T16:54:57.883Z,30.46
2018-06-18T16:57:28.118Z,30.04
2018-06-18T16:59:58.241Z,30.14
2018-06-18T17:02:28.293Z,30.41
2018-06-18T17:04:58.505Z,31.23
2018-06-18T17:07:28.450Z,30.90
2018-06-18T17:09:58.806Z,31.13
2018-06-18T17:12:28.897Z,31.26
2018-06-18T17:14:59.260Z,32.61
2018-06-18T17:17:29.286Z,32.54
2018-06-18T17:19:59.512Z,33.03
2018-06-18T17:22:29.710Z,33.26
2018-06-18T17:24:59.972Z,33.45
2018-06-18T17:27:30.359Z,33.38
2018-06-18T17:30:00.708Z,34.15
2018-06-18T17:32:30.855Z,34.82
2018-06-18T17:35:01.043Z,35.19
2018-06-18T17:37:31.158Z,34.64
2018-06-18T17:40:01.223Z,35.60
2018-06-18T17:42:31.543Z,36.35
2018-06-18T17:45:01.921Z,36.49
2018-06-18T17:47:32.142Z,36.32
2018-06-18T17:50:02.289Z,37.18
2018-06-18T17:52:32.633Z,36.06
2018-06-18T17:55:02.861Z,36.29
2018-06-18T17:57:33.149Z,36.63
2018-06-18T18:00:03.636Z,36.52
2018-06-18T18:02:33.812Z,36.81
2018-06-18T18:05:04.226Z,36.81
2018-06-18T18:07:34.640Z,36.94
2018-06-18T18:10:05.008Z,37.94
2018-06-18T18:12:35.307Z,37.55
2018-06-18T18:15:05.803Z,38.30
2018-06-18T18:17:36.218Z,37.41
2018-06-18T18:20:07.087Z,38.55
2018-06-18T18:22:37.338Z,41.49
2018-06-18T18:25:07.300Z,42.86
2018-06-18T18:27:37.415Z,43.46
2018-06-18T18:30:07.904Z,43.75
2018-06-18T18:32:37.893Z,44.22
2018-06-18T18:35:08.418Z,44.30
2018-06-18T18:37:38.704Z,45.21
2018-06-18T18:40:09.180Z,45.40
2018-06-18T18:42:39.438Z,45.06
2018-06-18T18:45:09.574Z,45.15
2018-06-18T18:47:39.772Z,45.76
2018-06-18T18:50:10.465Z,45.11
2018-06-18T18:52:40.562Z,45.54
2018-06-18T18:55:54.224Z,45.42
2018-06-18T18:58:49.496Z,45.38
2018-06-18T19:01:19.420Z,45.08
2018-06-18T19:03:50.740Z,45.27
2018-06-18T19:06:20.969Z,45.47
2018-06-18T19:08:51.253Z,45.80
2018-06-18T19:11:22.055Z,45.97
2018-06-18T19:13:52.451Z,46.52
2018-06-18T19:16:22.488Z,45.81
2018-06-18T19:18:58.094Z,46.20
2018-06-18T19:21:28.211Z,47.04
2018-06-18T19:23:58.517Z,46.77
2018-06-18T19:26:28.695Z,46.55
2018-06-18T19:28:58.976Z,47.40
2018-06-18T19:31:29.232Z,47.12
2018-06-18T19:34:12.582Z,47.43
2018-06-18T19:36:59.859Z,47.46
2018-06-18T19:39:34.043Z,46.76
2018-06-18T19:42:04.255Z,47.51
2018-06-18T19:44:34.426Z,47.54
2018-06-18T19:48:10.621Z,47.58
2018-06-18T19:50:40.848Z,47.82
2018-06-18T19:53:11.404Z,47.98
2018-06-18T19:55:41.695Z,47.24
2018-06-18T19:58:12.058Z,47.43
2018-06-18T20:00:46.976Z,47.51
2018-06-18T20:03:16.942Z,47.24
2018-06-18T20:05:47.776Z,47.27
2018-06-18T20:08:20.984Z,46.53
2018-06-18T20:10:51.065Z,47.17
2018-06-18T20:13:21.212Z,47.37
2018-06-18T20:15:51.482Z,47.67
2018-06-18T20:18:22.063Z,47.52
2018-06-18T20:20:52.916Z,47.72
2018-06-18T20:23:24.820Z,47.23
2018-06-18T20:26:03.399Z,47.28
2018-06-18T20:28:33.515Z,47.17
2018-06-18T20:31:03.706Z,46.79
2018-06-18T20:33:35.824Z,46.94
2018-06-18T20:36:11.318Z,46.81
2018-06-18T20:38:42.187Z,46.16
2018-06-18T20:41:12.390Z,46.87
2018-06-18T20:43:58.739Z,46.42
2018-06-18T20:46:29.114Z,46.82
2018-06-18T20:48:59.238Z,46.74
2018-06-18T20:51:29.327Z,46.83
2018-06-18T20:53:59.619Z,47.03
2018-06-18T20:56:29.858Z,47.40
2018-06-18T20:59:00.136Z,47.72
2018-06-18T21:01:30.438Z,47.01
2018-06-18T21:04:00.665Z,47.85
2018-06-18T21:06:30.948Z,47.43
2018-06-18T21:09:01.210Z,48.19
2018-06-18T21:11:31.535Z,47.72
2018-06-18T21:14:01.671Z,48.54
2018-06-18T21:16:31.511Z,48.08
2018-06-18T21:19:01.681Z,48.66
2018-06-18T21:21:32.017Z,48.13
2018-06-18T21:24:02.679Z,48.25
2018-06-18T21:26:32.754Z,48.60
2018-06-18T21:29:02.791Z,48.47
2018-06-18T21:31:32.904Z,48.65
2018-06-18T21:34:03.028Z,48.56
2018-06-18T21:36:33.172Z,49.55
2018-06-18T21:39:04.085Z,49.71
2018-06-18T21:41:34.692Z,49.42
2018-06-18T21:44:05.623Z,49.12
2018-06-18T21:46:35.858Z,49.78
2018-06-18T21:49:06.097Z,50.08
2018-06-18T21:51:36.239Z,49.38
2018-06-18T21:54:06.716Z,49.84
2018-06-18T21:56:37.049Z,49.67
2018-06-18T21:59:07.203Z,49.54
2018-06-18T22:01:39.918Z,49.92
2018-06-18T22:04:10.187Z,50.18
2018-06-18T22:06:40.417Z,49.79
2018-06-18T22:09:17.092Z,49.35
2018-06-18T22:11:52.165Z,49.36
2018-06-18T22:14:22.811Z,49.79
2018-06-18T22:16:53.134Z,49.85
2018-06-18T22:19:23.310Z,49.45
2018-06-18T22:21:53.569Z,49.58
2018-06-18T22:24:23.649Z,50.23
2018-06-18T22:26:53.823Z,49.66
2018-06-18T22:29:23.906Z,50.03
2018-06-18T22:31:54.113Z,50.24
2018-06-18T22:34:24.260Z,50.29
2018-06-18T22:36:54.684Z,49.77
2018-06-18T22:39:24.717Z,49.74
2018-06-18T22:42:01.373Z,50.05
2018-06-18T22:44:31.576Z,50.63
2018-06-18T22:47:01.758Z,50.63
2018-06-18T22:49:31.867Z,50.55
2018-06-18T22:52:02.041Z,50.64
2018-06-18T22:54:32.158Z,50.72
2018-06-18T22:57:02.059Z,50.36
2018-06-18T22:59:32.199Z,50.19
2018-06-18T23:02:02.543Z,50.38
2018-06-18T23:04:32.747Z,50.43
2018-06-18T23:07:03.565Z,50.90
2018-06-18T23:09:33.772Z,50.62
2018-06-18T23:12:06.909Z,51.67
2018-06-18T23:14:37.246Z,51.49
2018-06-18T23:17:07.122Z,51.86
2018-06-18T23:19:37.657Z,51.87
2018-06-18T23:22:07.730Z,52.18
2018-06-18T23:24:38.012Z,52.50
2018-06-18T23:27:08.733Z,51.85
2018-06-18T23:29:38.914Z,52.12
2018-06-18T23:32:15.510Z,52.90
2018-06-18T23:34:45.659Z,53.23
2018-06-18T23:37:15.469Z,52.77
2018-06-18T23:39:45.918Z,53.46
2018-06-18T23:42:16.150Z,53.10
2018-06-18T23:44:49.187Z,53.04
2018-06-18T23:47:20.140Z,53.38
2018-06-18T23:49:50.813Z,53.17
2018-06-18T23:52:20.943Z,53.26
2018-06-18T23:54:51.340Z,53.51
2018-06-18T23:57:21.586Z,53.93
2018-06-18T23:59:51.663Z,53.94
